Time;durP1;ratioP1;P1;durP2;ratioP2;P2;SDS_P1;SDS_P2;PMS_P1;PMS_P2;Temp;Humidity;BMP_temperature;BMP_pressure;BME280_temperature;BME280_humidity;BME280_pressure;Samples;Min_cycle;Max_cycle;Signal;HPM_P1;HPM_P2
2023/09/21 00:00:33;;;;;;;;;;;19.90;72.60;;;;;;5064251;28;19929;-78
2023/09/21 00:03:00;;;;;;;;;;;19.90;72.70;;;;;;5042786;28;19936;-77
2023/09/21 00:05:29;;;;;;;;;;;19.90;72.70;;;;;;5057351;28;19928;-76
2023/09/21 00:07:57;;;;;;;;;;;19.80;72.70;;;;;;5065759;28;19943;-77
2023/09/21 00:10:29;;;;;;;;;;;19.80;72.90;;;;;;5068811;28;19928;-77
2023/09/21 00:12:56;;;;;;;;;;;19.80;72.90;;;;;;5052748;28;20011;-77
2023/09/21 00:15:29;;;;;;;;;;;19.70;72.80;;;;;;5062607;28;19928;-78
2023/09/21 00:17:56;;;;;;;;;;;19.70;72.90;;;;;;5064319;28;19929;-77
2023/09/21 00:20:28;;;;;;;;;;;19.70;73.00;;;;;;5064738;28;20410;-77
2023/09/21 00:22:55;;;;;;;;;;;19.70;73.00;;;;;;5047610;28;19935;-77
2023/09/21 00:25:22;;;;;;;;;;;19.60;72.90;;;;;;5062987;28;19928;-77
2023/09/21 00:27:50;;;;;;;;;;;19.60;73.00;;;;;;5047149;28;19939;-77
2023/09/21 00:30:17;;;;;;;;;;;19.60;73.10;;;;;;5063435;28;19932;-79
2023/09/21 00:32:43;;;;;;;;;;;19.60;73.10;;;;;;5064915;28;19935;-78
2023/09/21 00:35:12;;;;;;;;;;;19.50;73.10;;;;;;5063609;28;19935;-78
2023/09/21 00:37:39;;;;;;;;;;;19.50;73.00;;;;;;5063835;28;20414;-78
2023/09/21 00:40:19;;;;;;;;;;;19.50;73.10;;;;;;5041795;28;20241;-77
2023/09/21 00:42:45;;;;;;;;;;;19.50;73.20;;;;;;5065386;28;19927;-77
2023/09/21 00:45:14;;;;;;;;;;;19.40;73.20;;;;;;5061685;28;19928;-78
2023/09/21 00:47:42;;;;;;;;;;;19.40;73.30;;;;;;5043116;28;19935;-77
2023/09/21 00:50:11;;;;;;;;;;;19.40;73.30;;;;;;5045820;28;19928;-78
2023/09/21 00:52:40;;;;;;;;;;;19.40;73.30;;;;;;5066812;28;20047;-77
2023/09/21 00:55:08;;;;;;;;;;;19.40;73.40;;;;;;5062927;28;19936;-77
2023/09/21 00:57:36;;;;;;;;;;;19.30;73.50;;;;;;5066329;28;19924;-78
2023/09/21 01:00:10;;;;;;;;;;;19.30;73.50;;;;;;5064120;28;19929;-78
2023/09/21 01:02:39;;;;;;;;;;;19.30;73.70;;;;;;5060653;28;19951;-77
2023/09/21 01:05:08;;;;;;;;;;;19.20;73.70;;;;;;5061748;28;20389;-78
2023/09/21 01:07:36;;;;;;;;;;;19.20;73.80;;;;;;5062686;28;20351;-79
2023/09/21 01:10:07;;;;;;;;;;;19.20;73.80;;;;;;5063473;28;20021;-78
2023/09/21 01:12:36;;;;;;;;;;;19.20;73.90;;;;;;5065226;28;19929;-78
2023/09/21 01:15:04;;;;;;;;;;;19.20;74.00;;;;;;5042339;28;19936;-77
2023/09/21 01:17:31;;;;;;;;;;;19.10;74.00;;;;;;5060394;28;19936;-77
2023/09/21 01:19:59;;;;;;;;;;;19.10;74.10;;;;;;5065984;28;19928;-78
2023/09/21 01:22:26;;;;;;;;;;;19.10;74.10;;;;;;5049907;28;19928;-77
2023/09/21 01:24:54;;;;;;;;;;;19.10;74.10;;;;;;5066960;28;19924;-78
2023/09/21 01:27:21;;;;;;;;;;;19.10;74.30;;;;;;5066149;28;19999;-77
2023/09/21 01:29:52;;;;;;;;;;;19.00;74.30;;;;;;5052107;28;20500;-78
2023/09/21 01:32:20;;;;;;;;;;;19.00;74.30;;;;;;5061449;28;19933;-78
2023/09/21 01:34:46;;;;;;;;;;;19.00;74.40;;;;;;5064397;28;19932;-77
2023/09/21 01:40:18;;;;;;;;;;;19.00;74.50;;;;;;5064680;28;20681;-77
2023/09/21 01:42:48;;;;;;;;;;;19.00;74.50;;;;;;5047040;28;20017;-75
2023/09/21 01:45:15;;;;;;;;;;;18.90;74.50;;;;;;5043796;28;19935;-78
2023/09/21 01:47:41;;;;;;;;;;;18.90;74.50;;;;;;5059683;28;19933;-78
2023/09/21 01:50:11;;;;;;;;;;;18.90;74.60;;;;;;5063100;28;19939;-76
2023/09/21 01:52:38;;;;;;;;;;;18.90;74.60;;;;;;5061585;28;19928;-77
2023/09/21 01:55:10;;;;;;;;;;;18.80;74.70;;;;;;5064560;28;19939;-78
2023/09/21 01:57:38;;;;;;;;;;;18.80;74.80;;;;;;5063031;28;19928;-78
2023/09/21 02:00:11;;;;;;;;;;;18.90;74.90;;;;;;5065790;28;19935;-78
2023/09/21 02:02:38;;;;;;;;;;;18.80;74.90;;;;;;5047007;28;19934;-77
2023/09/21 02:05:07;;;;;;;;;;;18.80;75.00;;;;;;5044258;28;21083;-76
2023/09/21 02:07:34;;;;;;;;;;;18.80;75.00;;;;;;5048015;28;20061;-77
2023/09/21 02:10:01;;;;;;;;;;;18.80;75.20;;;;;;5067789;28;19962;-76
2023/09/21 02:12:28;;;;;;;;;;;18.70;75.20;;;;;;5030617;28;20030;-78
2023/09/21 02:14:56;;;;;;;;;;;18.70;75.30;;;;;;5060728;28;19936;-78
2023/09/21 02:17:24;;;;;;;;;;;18.70;75.40;;;;;;5062003;28;19940;-78
2023/09/21 02:19:52;;;;;;;;;;;18.70;75.50;;;;;;5061227;28;19932;-77
2023/09/21 02:22:19;;;;;;;;;;;18.70;75.50;;;;;;5062425;28;19940;-78
2023/09/21 02:24:48;;;;;;;;;;;18.70;75.70;;;;;;5043012;28;20054;-76
2023/09/21 02:27:15;;;;;;;;;;;18.60;75.70;;;;;;5058294;28;19929;-77
2023/09/21 02:29:42;;;;;;;;;;;18.70;75.80;;;;;;5043365;28;19929;-77
2023/09/21 02:32:11;;;;;;;;;;;18.60;75.90;;;;;;5039368;28;19924;-78
2023/09/21 02:34:38;;;;;;;;;;;18.70;76.00;;;;;;5040468;28;19932;-78
2023/09/21 02:37:06;;;;;;;;;;;18.60;76.10;;;;;;5059737;28;19933;-78
2023/09/21 02:39:35;;;;;;;;;;;18.60;76.10;;;;;;5061336;28;19928;-77
2023/09/21 02:42:03;;;;;;;;;;;18.60;76.30;;;;;;5041891;28;20024;-78
2023/09/21 02:44:30;;;;;;;;;;;18.60;76.40;;;;;;5022854;28;19947;-78
2023/09/21 02:46:57;;;;;;;;;;;18.60;77.20;;;;;;5039020;28;20000;-77
2023/09/21 02:49:25;;;;;;;;;;;18.60;76.50;;;;;;5021824;28;20606;-76
2023/09/21 02:51:52;;;;;;;;;;;18.60;76.60;;;;;;5042088;28;19929;-76
2023/09/21 02:54:19;;;;;;;;;;;18.60;76.70;;;;;;5041213;28;20041;-77
2023/09/21 02:56:47;;;;;;;;;;;18.60;76.80;;;;;;5041718;28;20004;-77
2023/09/21 02:59:14;;;;;;;;;;;18.60;76.90;;;;;;5057299;28;19933;-76
2023/09/21 03:01:41;;;;;;;;;;;18.60;76.90;;;;;;5041626;28;19928;-77
2023/09/21 03:04:08;;;;;;;;;;;18.60;76.90;;;;;;5040469;28;20559;-77
2023/09/21 03:06:36;;;;;;;;;;;18.50;76.90;;;;;;5040849;28;19933;-76
2023/09/21 03:09:03;;;;;;;;;;;18.60;77.10;;;;;;5040034;28;19933;-77
2023/09/21 03:11:30;;;;;;;;;;;18.50;77.10;;;;;;5041034;28;20066;-78
2023/09/21 03:13:56;;;;;;;;;;;18.50;77.10;;;;;;5042043;28;19936;-78
2023/09/21 03:16:23;;;;;;;;;;;18.50;77.20;;;;;;5023855;28;19937;-76
2023/09/21 03:18:50;;;;;;;;;;;18.50;77.20;;;;;;5040573;28;19939;-78
2023/09/21 03:21:17;;;;;;;;;;;18.50;77.20;;;;;;5042438;28;19932;-76
2023/09/21 03:23:46;;;;;;;;;;;18.50;77.30;;;;;;5026135;28;19943;-75
2023/09/21 03:26:13;;;;;;;;;;;18.50;77.40;;;;;;5043926;28;20070;-77
2023/09/21 03:28:40;;;;;;;;;;;18.50;77.40;;;;;;5040334;28;19929;-77
2023/09/21 03:31:07;;;;;;;;;;;18.50;77.40;;;;;;5040353;28;19939;-76
2023/09/21 03:33:33;;;;;;;;;;;18.50;78.20;;;;;;5040297;28;19948;-77
2023/09/21 03:36:01;;;;;;;;;;;18.50;77.50;;;;;;5040994;28;19936;-76
2023/09/21 03:38:28;;;;;;;;;;;18.50;77.50;;;;;;5041005;28;20014;-77
2023/09/21 03:40:57;;;;;;;;;;;18.50;77.60;;;;;;5029466;28;20015;-78
2023/09/21 03:43:25;;;;;;;;;;;18.40;77.50;;;;;;5061101;28;19928;-76
2023/09/21 03:45:52;;;;;;;;;;;18.50;77.70;;;;;;5061227;28;19928;-77
2023/09/21 03:48:19;;;;;;;;;;;18.50;77.70;;;;;;5075589;28;20038;-78
2023/09/21 03:50:47;;;;;;;;;;;18.50;77.80;;;;;;5065290;28;20018;-76
2023/09/21 03:53:14;;;;;;;;;;;18.50;77.80;;;;;;5047791;28;20020;-78
2023/09/21 03:55:41;;;;;;;;;;;18.40;77.80;;;;;;5043471;28;20355;-78
2023/09/21 03:58:10;;;;;;;;;;;18.40;77.80;;;;;;5043422;28;19929;-79
2023/09/21 04:00:37;;;;;;;;;;;18.50;78.00;;;;;;5063688;28;19936;-77
2023/09/21 04:03:06;;;;;;;;;;;18.40;78.00;;;;;;5059807;28;19938;-77
2023/09/21 04:05:34;;;;;;;;;;;18.40;78.10;;;;;;5064301;28;19939;-78
2023/09/21 04:08:01;;;;;;;;;;;18.40;78.20;;;;;;5076619;28;19950;-76
2023/09/21 04:10:30;;;;;;;;;;;18.40;78.30;;;;;;5062558;28;19928;-78
2023/09/21 04:12:57;;;;;;;;;;;18.40;78.50;;;;;;5059922;28;19928;-78
2023/09/21 04:15:25;;;;;;;;;;;18.40;78.60;;;;;;5061162;28;19932;-78
2023/09/21 04:17:52;;;;;;;;;;;18.40;78.80;;;;;;5059955;28;19932;-78
2023/09/21 04:20:21;;;;;;;;;;;18.40;78.90;;;;;;5065234;28;19932;-78
2023/09/21 04:22:49;;;;;;;;;;;18.40;79.10;;;;;;5045680;28;20031;-78
2023/09/21 04:25:17;;;;;;;;;;;18.40;79.20;;;;;;5060210;28;19929;-77
2023/09/21 04:27:44;;;;;;;;;;;18.40;79.40;;;;;;5060959;28;19928;-79
2023/09/21 04:30:14;;;;;;;;;;;18.40;79.50;;;;;;5059576;28;19924;-78
2023/09/21 04:32:43;;;;;;;;;;;18.40;79.60;;;;;;5059017;28;19928;-77
2023/09/21 04:35:10;;;;;;;;;;;18.30;79.70;;;;;;5060373;28;19940;-78
2023/09/21 04:37:38;;;;;;;;;;;18.40;79.80;;;;;;5062167;28;19935;-78
2023/09/21 04:40:05;;;;;;;;;;;18.30;79.90;;;;;;5040649;28;20383;-78
2023/09/21 04:42:35;;;;;;;;;;;18.30;80.00;;;;;;5063102;28;19928;-79
2023/09/21 04:45:08;;;;;;;;;;;18.30;80.20;;;;;;5059590;28;19936;-78
2023/09/21 04:47:35;;;;;;;;;;;18.30;80.30;;;;;;5062307;28;19928;-79
2023/09/21 04:50:05;;;;;;;;;;;18.30;80.50;;;;;;5059961;28;19928;-78
2023/09/21 04:52:31;;;;;;;;;;;18.30;80.50;;;;;;5062980;28;19929;-78
2023/09/21 04:54:59;;;;;;;;;;;18.30;80.50;;;;;;5067806;28;19940;-79
2023/09/21 04:57:27;;;;;;;;;;;18.30;80.50;;;;;;5066922;28;19928;-78
2023/09/21 04:59:55;;;;;;;;;;;18.30;80.60;;;;;;5068641;28;19935;-78
2023/09/21 05:02:22;;;;;;;;;;;18.30;80.60;;;;;;5060750;28;19928;-79
2023/09/21 05:04:50;;;;;;;;;;;18.30;80.70;;;;;;5077228;28;19932;-79
2023/09/21 05:07:19;;;;;;;;;;;18.30;80.70;;;;;;5068267;28;19968;-79
2023/09/21 05:09:45;;;;;;;;;;;18.30;80.80;;;;;;5064637;28;20032;-78
2023/09/21 05:12:12;;;;;;;;;;;18.30;80.80;;;;;;5047152;28;20017;-79
2023/09/21 05:14:39;;;;;;;;;;;18.20;80.80;;;;;;5060693;28;20537;-79
2023/09/21 05:17:06;;;;;;;;;;;18.30;80.90;;;;;;5061668;28;19928;-79
2023/09/21 05:19:42;;;;;;;;;;;18.30;81.00;;;;;;5063532;28;19936;-77
2023/09/21 05:22:09;;;;;;;;;;;18.30;81.10;;;;;;5059298;28;19964;-79
2023/09/21 05:24:37;;;;;;;;;;;18.20;81.20;;;;;;5042277;28;19962;-79
2023/09/21 05:27:04;;;;;;;;;;;18.20;81.30;;;;;;5046471;28;20389;-80
2023/09/21 05:29:37;;;;;;;;;;;18.20;81.50;;;;;;5065187;28;19929;-77
2023/09/21 05:32:05;;;;;;;;;;;18.20;81.50;;;;;;5061024;28;19928;-78
2023/09/21 05:34:32;;;;;;;;;;;18.20;81.60;;;;;;5067252;28;19932;-78
2023/09/21 05:36:59;;;;;;;;;;;18.20;84.50;;;;;;5076123;28;19935;-79
2023/09/21 05:39:26;;;;;;;;;;;18.10;85.90;;;;;;5066375;28;20457;-79
2023/09/21 05:41:58;;;;;;;;;;;18.00;85.60;;;;;;5054053;28;20478;-81
2023/09/21 05:44:28;;;;;;;;;;;18.00;85.60;;;;;;5065102;28;19924;-81
2023/09/21 05:46:55;;;;;;;;;;;18.00;85.60;;;;;;5032785;28;19974;-80
2023/09/21 05:49:23;;;;;;;;;;;18.00;85.50;;;;;;5067446;28;19928;-79
2023/09/21 05:51:52;;;;;;;;;;;18.00;85.50;;;;;;5067737;28;19929;-81
2023/09/21 05:54:23;;;;;;;;;;;18.00;85.40;;;;;;5067204;28;20383;-79
2023/09/21 05:56:50;;;;;;;;;;;18.00;85.20;;;;;;5070315;28;19996;-81
2023/09/21 05:59:27;;;;;;;;;;;18.00;85.10;;;;;;5050483;28;19972;-80
2023/09/21 06:01:55;;;;;;;;;;;18.00;85.00;;;;;;5069248;28;19936;-81
2023/09/21 06:04:22;;;;;;;;;;;18.00;84.90;;;;;;5067369;28;19939;-82
2023/09/21 06:06:49;;;;;;;;;;;18.00;84.90;;;;;;5072098;28;19936;-81
2023/09/21 06:09:19;;;;;;;;;;;18.10;84.90;;;;;;5051895;28;19935;-79
2023/09/21 06:11:46;;;;;;;;;;;18.00;84.90;;;;;;5069361;28;20131;-80
2023/09/21 06:14:12;;;;;;;;;;;18.10;85.00;;;;;;5070734;28;19913;-79
2023/09/21 06:16:42;;;;;;;;;;;18.00;85.00;;;;;;5069119;28;19947;-79
2023/09/21 06:19:09;;;;;;;;;;;18.00;85.10;;;;;;5066761;28;19959;-79
2023/09/21 06:21:36;;;;;;;;;;;18.00;85.20;;;;;;5049123;28;20574;-80
2023/09/21 06:24:03;;;;;;;;;;;18.00;85.40;;;;;;5067940;28;19951;-79
2023/09/21 06:26:30;;;;;;;;;;;18.00;85.40;;;;;;5066569;28;20384;-80
2023/09/21 06:28:58;;;;;;;;;;;18.00;85.40;;;;;;5072029;28;20018;-80
2023/09/21 06:31:24;;;;;;;;;;;18.00;85.50;;;;;;5068261;28;19967;-80
2023/09/21 06:33:53;;;;;;;;;;;18.00;85.50;;;;;;5067725;28;19935;-81
2023/09/21 06:36:20;;;;;;;;;;;18.00;85.60;;;;;;5069746;28;19938;-80
2023/09/21 06:38:47;;;;;;;;;;;18.00;85.70;;;;;;5068676;28;19929;-80
2023/09/21 06:43:55;;;;;;;;;;;18.00;85.90;;;;;;5074495;28;20472;-80
2023/09/21 06:46:22;;;;;;;;;;;18.00;86.00;;;;;;5067537;28;19932;-80
2023/09/21 06:48:49;;;;;;;;;;;17.90;86.20;;;;;;5052135;28;19928;-79
2023/09/21 06:51:17;;;;;;;;;;;18.00;86.50;;;;;;5058154;28;20422;-78
2023/09/21 06:53:44;;;;;;;;;;;18.00;86.50;;;;;;5056753;28;19980;-80
2023/09/21 06:56:11;;;;;;;;;;;18.00;86.50;;;;;;5051765;28;19928;-80
2023/09/21 06:58:38;;;;;;;;;;;18.00;86.40;;;;;;5072134;28;19932;-80
2023/09/21 07:01:05;;;;;;;;;;;18.00;86.30;;;;;;5050722;28;19932;-78
2023/09/21 07:03:33;;;;;;;;;;;18.00;86.30;;;;;;5064872;28;19928;-79
2023/09/21 07:05:59;;;;;;;;;;;18.00;86.20;;;;;;5076367;28;19977;-80
2023/09/21 07:08:27;;;;;;;;;;;18.00;86.10;;;;;;5073390;28;19928;-79
2023/09/21 07:10:54;;;;;;;;;;;18.00;86.00;;;;;;5073098;28;19939;-79
2023/09/21 07:13:21;;;;;;;;;;;18.00;86.00;;;;;;5075961;28;19928;-80
2023/09/21 07:15:48;;;;;;;;;;;18.00;86.00;;;;;;5073519;28;19968;-79
2023/09/21 07:18:15;;;;;;;;;;;18.00;85.90;;;;;;5075051;28;19928;-79
2023/09/21 07:20:44;;;;;;;;;;;18.00;85.80;;;;;;5041835;28;19928;-79
2023/09/21 07:23:11;;;;;;;;;;;18.00;85.60;;;;;;5057117;28;19925;-80
2023/09/21 07:25:39;;;;;;;;;;;18.00;85.60;;;;;;5074094;28;20685;-78
2023/09/21 07:28:06;;;;;;;;;;;18.00;85.60;;;;;;5081264;28;19935;-79
2023/09/21 07:30:33;;;;;;;;;;;18.00;85.40;;;;;;5052281;28;19928;-79
2023/09/21 07:33:02;;;;;;;;;;;18.10;85.40;;;;;;5076302;28;20608;-80
2023/09/21 07:35:29;;;;;;;;;;;18.10;85.30;;;;;;5080535;28;19932;-79
2023/09/21 07:37:55;;;;;;;;;;;18.10;85.20;;;;;;5055475;28;20310;-80
2023/09/21 07:40:23;;;;;;;;;;;18.10;85.10;;;;;;5070792;28;20023;-78
2023/09/21 07:42:51;;;;;;;;;;;18.10;85.00;;;;;;5073655;28;20464;-80
2023/09/21 07:45:19;;;;;;;;;;;18.10;85.00;;;;;;5055627;28;19955;-79
2023/09/21 07:47:46;;;;;;;;;;;18.10;84.90;;;;;;5089051;28;20007;-78
2023/09/21 07:50:12;;;;;;;;;;;18.10;84.90;;;;;;5073071;28;19982;-79
2023/09/21 07:52:41;;;;;;;;;;;18.10;84.90;;;;;;5073017;28;20650;-79
2023/09/21 07:55:09;;;;;;;;;;;18.10;84.80;;;;;;5072935;28;20222;-79
2023/09/21 07:57:37;;;;;;;;;;;18.10;84.80;;;;;;5075872;28;20213;-79
2023/09/21 08:00:09;;;;;;;;;;;18.10;84.80;;;;;;5068723;28;19951;-80
2023/09/21 08:02:36;;;;;;;;;;;18.10;84.80;;;;;;5053616;28;20706;-80
2023/09/21 08:05:04;;;;;;;;;;;18.20;84.80;;;;;;5067575;28;19924;-81
2023/09/21 08:07:32;;;;;;;;;;;18.20;85.00;;;;;;5068952;28;19932;-80
2023/09/21 08:10:01;;;;;;;;;;;18.20;85.00;;;;;;5067857;28;19928;-80
2023/09/21 08:12:28;;;;;;;;;;;18.20;84.90;;;;;;5071494;28;19982;-80
2023/09/21 08:14:55;;;;;;;;;;;18.20;84.90;;;;;;5081619;28;19928;-81
2023/09/21 08:17:23;;;;;;;;;;;18.20;84.70;;;;;;5047473;28;19936;-80
2023/09/21 08:19:50;;;;;;;;;;;18.20;84.70;;;;;;5051102;28;19932;-81
2023/09/21 08:22:16;;;;;;;;;;;18.30;84.70;;;;;;5064368;28;19939;-79
2023/09/21 08:24:43;;;;;;;;;;;18.30;84.80;;;;;;5070248;28;19935;-80
2023/09/21 08:27:10;;;;;;;;;;;18.30;84.70;;;;;;5070118;28;19935;-81
2023/09/21 08:29:36;;;;;;;;;;;18.30;84.60;;;;;;5049280;28;20053;-80
2023/09/21 08:32:04;;;;;;;;;;;18.30;84.70;;;;;;5069994;28;19941;-80
2023/09/21 08:34:32;;;;;;;;;;;18.30;84.70;;;;;;5068456;28;20310;-79
2023/09/21 08:36:58;;;;;;;;;;;18.30;84.70;;;;;;5049403;28;19972;-80
2023/09/21 08:39:25;;;;;;;;;;;18.40;84.80;;;;;;5049737;28;19975;-81
2023/09/21 08:41:52;;;;;;;;;;;18.30;84.90;;;;;;5032883;28;20040;-81
2023/09/21 08:44:19;;;;;;;;;;;18.40;85.00;;;;;;5067757;28;20337;-80
2023/09/21 08:46:46;;;;;;;;;;;18.40;85.00;;;;;;5066141;28;19929;-78
2023/09/21 08:49:14;;;;;;;;;;;18.40;85.00;;;;;;5048690;28;19993;-81
2023/09/21 08:51:44;;;;;;;;;;;18.40;85.00;;;;;;5067573;28;20078;-79
2023/09/21 08:54:14;;;;;;;;;;;18.40;85.00;;;;;;5045678;28;20024;-79
2023/09/21 08:56:42;;;;;;;;;;;18.50;85.00;;;;;;5069292;28;20365;-80
2023/09/21 08:59:09;;;;;;;;;;;18.50;85.00;;;;;;5067885;28;20626;-81
2023/09/21 09:01:35;;;;;;;;;;;18.50;85.10;;;;;;5048028;28;19939;-80
2023/09/21 09:04:03;;;;;;;;;;;18.50;85.20;;;;;;5052465;28;19928;-82
2023/09/21 09:06:31;;;;;;;;;;;18.50;85.10;;;;;;5048967;28;20333;-80
2023/09/21 09:08:59;;;;;;;;;;;18.50;85.10;;;;;;5066094;28;20004;-79
2023/09/21 09:11:32;;;;;;;;;;;18.50;85.10;;;;;;5065130;28;19928;-79
2023/09/21 09:13:59;;;;;;;;;;;18.50;85.10;;;;;;5048087;28;19932;-80
2023/09/21 09:16:28;;;;;;;;;;;18.60;85.10;;;;;;5067114;28;20602;-82
2023/09/21 09:18:57;;;;;;;;;;;18.60;85.10;;;;;;5034881;28;19940;-80
2023/09/21 09:21:23;;;;;;;;;;;18.60;85.10;;;;;;5050506;28;19951;-80
2023/09/21 09:23:50;;;;;;;;;;;18.70;85.40;;;;;;5050407;28;20699;-79
2023/09/21 09:26:20;;;;;;;;;;;18.70;85.70;;;;;;5064693;28;19928;-79
2023/09/21 09:28:48;;;;;;;;;;;18.70;85.90;;;;;;5064995;28;19932;-80
2023/09/21 09:31:17;;;;;;;;;;;18.80;85.90;;;;;;5066008;28;19959;-79
2023/09/21 09:33:46;;;;;;;;;;;18.90;85.70;;;;;;5049980;28;19985;-80
2023/09/21 09:36:13;;;;;;;;;;;18.90;85.50;;;;;;5047072;28;19925;-80
2023/09/21 09:38:40;;;;;;;;;;;18.90;85.30;;;;;;5066317;28;19929;-80
2023/09/21 09:41:06;;;;;;;;;;;19.00;85.30;;;;;;5070232;28;19932;-80
2023/09/21 09:43:36;;;;;;;;;;;19.00;85.40;;;;;;5048848;28;19964;-81
2023/09/21 09:46:04;;;;;;;;;;;19.00;85.30;;;;;;5065180;28;19943;-79
2023/09/21 09:48:33;;;;;;;;;;;19.00;85.20;;;;;;5051569;28;19929;-80
2023/09/21 09:51:03;;;;;;;;;;;19.10;85.20;;;;;;5066981;28;19942;-82
2023/09/21 09:53:31;;;;;;;;;;;19.20;85.40;;;;;;5067879;28;19934;-81
2023/09/21 09:55:59;;;;;;;;;;;19.10;85.30;;;;;;5068489;28;20027;-82
2023/09/21 09:58:27;;;;;;;;;;;19.20;85.30;;;;;;5068511;28;19932;-81
2023/09/21 10:00:55;;;;;;;;;;;19.20;85.40;;;;;;5067803;28;20037;-80
2023/09/21 10:03:22;;;;;;;;;;;19.30;85.40;;;;;;5067780;28;19932;-80
2023/09/21 10:05:50;;;;;;;;;;;19.30;85.40;;;;;;5067555;28;19936;-82
2023/09/21 10:08:18;;;;;;;;;;;19.30;85.40;;;;;;5063991;28;19943;-79
2023/09/21 10:10:46;;;;;;;;;;;19.40;85.30;;;;;;5081301;28;19928;-80
2023/09/21 10:13:12;;;;;;;;;;;19.50;85.30;;;;;;5070647;28;20483;-81
2023/09/21 10:15:43;;;;;;;;;;;19.50;85.10;;;;;;5063998;28;19935;-82
2023/09/21 10:18:11;;;;;;;;;;;19.50;85.10;;;;;;5059017;28;19983;-80
2023/09/21 10:20:38;;;;;;;;;;;19.50;85.00;;;;;;5063661;28;20764;-82
2023/09/21 10:23:09;;;;;;;;;;;19.60;84.90;;;;;;5067285;28;20055;-82
2023/09/21 10:25:37;;;;;;;;;;;19.60;84.80;;;;;;5065317;28;19929;-81
2023/09/21 10:28:27;;;;;;;;;;;19.60;84.70;;;;;;5065374;28;20808;-82
2023/09/21 10:30:53;;;;;;;;;;;19.70;84.60;;;;;;5063044;28;20012;-80
2023/09/21 10:33:22;;;;;;;;;;;19.70;84.40;;;;;;5041678;28;19925;-81
2023/09/21 10:35:49;;;;;;;;;;;19.70;84.40;;;;;;5062241;28;20004;-80
2023/09/21 10:38:17;;;;;;;;;;;19.80;84.50;;;;;;5061817;28;20029;-79
2023/09/21 10:40:44;;;;;;;;;;;19.80;84.40;;;;;;5066497;28;19967;-82
2023/09/21 10:43:31;;;;;;;;;;;19.80;84.40;;;;;;5059101;28;19936;-79
2023/09/21 10:46:03;;;;;;;;;;;19.90;84.30;;;;;;5065290;28;20005;-81
2023/09/21 10:48:31;;;;;;;;;;;19.90;84.20;;;;;;5049987;28;20430;-80
2023/09/21 10:51:00;;;;;;;;;;;19.90;84.10;;;;;;5065552;28;19935;-79
2023/09/21 10:53:28;;;;;;;;;;;20.00;84.20;;;;;;5065845;28;20039;-80
2023/09/21 10:55:55;;;;;;;;;;;20.00;84.10;;;;;;5074815;28;19928;-79
2023/09/21 10:58:24;;;;;;;;;;;20.00;84.00;;;;;;5041281;28;20190;-80
2023/09/21 11:00:51;;;;;;;;;;;20.00;83.90;;;;;;5068510;28;19932;-80
2023/09/21 11:03:18;;;;;;;;;;;20.00;83.80;;;;;;5064247;28;21042;-79
2023/09/21 11:05:47;;;;;;;;;;;20.10;83.80;;;;;;5049395;28;20023;-80
2023/09/21 11:08:15;;;;;;;;;;;20.20;83.60;;;;;;5066073;28;19935;-81
2023/09/21 11:10:42;;;;;;;;;;;20.10;83.50;;;;;;5065024;28;20181;-81
2023/09/21 11:13:09;;;;;;;;;;;20.20;83.20;;;;;;5066454;28;19991;-79
2023/09/21 11:15:36;;;;;;;;;;;20.20;83.10;;;;;;5046938;28;19968;-80
2023/09/21 11:18:03;;;;;;;;;;;20.30;83.10;;;;;;5064472;28;19928;-80
2023/09/21 11:20:30;;;;;;;;;;;20.30;82.90;;;;;;5067959;28;19928;-80
2023/09/21 11:23:01;;;;;;;;;;;20.30;82.80;;;;;;5067331;28;19928;-79
2023/09/21 11:25:27;;;;;;;;;;;20.40;82.70;;;;;;5049565;28;19932;-79
2023/09/21 11:27:57;;;;;;;;;;;20.40;82.50;;;;;;5069157;28;20314;-81
2023/09/21 11:30:25;;;;;;;;;;;20.40;82.30;;;;;;5029945;28;19932;-80
2023/09/21 11:32:54;;;;;;;;;;;20.50;82.20;;;;;;5065182;28;19927;-80
2023/09/21 11:35:23;;;;;;;;;;;20.50;82.80;;;;;;5048882;28;19929;-80
2023/09/21 11:37:51;;;;;;;;;;;20.60;81.90;;;;;;5065458;28;19929;-80
2023/09/21 11:40:21;;;;;;;;;;;20.60;81.70;;;;;;5061577;28;19930;-79
2023/09/21 11:42:48;;;;;;;;;;;20.70;81.60;;;;;;5046069;28;19928;-80
2023/09/21 11:45:16;;;;;;;;;;;20.70;80.70;;;;;;5041425;28;19928;-79
2023/09/21 11:47:46;;;;;;;;;;;20.80;80.90;;;;;;5063692;28;19939;-79
2023/09/21 11:50:18;;;;;;;;;;;20.90;80.90;;;;;;5066188;28;20025;-80
2023/09/21 11:52:45;;;;;;;;;;;21.00;80.70;;;;;;5067475;28;19936;-79
2023/09/21 11:55:12;;;;;;;;;;;21.00;80.40;;;;;;5043098;28;19928;-81
2023/09/21 11:57:42;;;;;;;;;;;21.00;80.20;;;;;;5051499;28;19928;-80
2023/09/21 12:00:13;;;;;;;;;;;21.10;80.00;;;;;;5067354;28;19928;-79
2023/09/21 12:02:40;;;;;;;;;;;21.20;79.80;;;;;;5050166;28;20275;-80
2023/09/21 12:05:10;;;;;;;;;;;21.30;79.40;;;;;;5071026;28;19935;-79
2023/09/21 12:07:37;;;;;;;;;;;21.30;79.40;;;;;;5067457;28;19967;-78
2023/09/21 12:10:07;;;;;;;;;;;21.40;79.30;;;;;;5067234;28;19998;-80
2023/09/21 12:12:37;;;;;;;;;;;21.40;79.00;;;;;;5072344;28;19935;-80
2023/09/21 12:15:06;;;;;;;;;;;21.50;79.00;;;;;;5071614;28;19935;-81
2023/09/21 12:17:36;;;;;;;;;;;21.50;78.80;;;;;;5071661;28;19933;-80
2023/09/21 12:20:11;;;;;;;;;;;21.50;78.70;;;;;;5069348;28;19935;-81
2023/09/21 12:22:38;;;;;;;;;;;21.50;78.70;;;;;;5068068;28;20093;-80
2023/09/21 12:25:06;;;;;;;;;;;21.60;78.70;;;;;;5050679;28;19929;-81
2023/09/21 12:27:43;;;;;;;;;;;;;;;;;;;;;
2023/09/21 12:30:14;;;;;;;;;;;21.60;78.60;;;;;;5067873;28;19935;-80
2023/09/21 12:35:25;;;;;;;;;;;21.60;78.70;;;;;;5062201;28;19924;-80
2023/09/21 12:37:52;;;;;;;;;;;21.60;78.80;;;;;;5067140;28;19928;-81
2023/09/21 12:40:19;;;;;;;;;;;21.70;78.80;;;;;;5045708;28;19978;-80
2023/09/21 12:42:46;;;;;;;;;;;21.70;78.80;;;;;;5064443;28;19935;-79
2023/09/21 12:45:21;;;;;;;;;;;21.70;78.90;;;;;;5041590;28;19932;-81
2023/09/21 12:47:48;;;;;;;;;;;21.70;78.80;;;;;;5064199;28;19936;-79
2023/09/21 12:50:18;;;;;;;;;;;21.70;78.80;;;;;;5068359;28;20258;-79
2023/09/21 12:52:45;;;;;;;;;;;21.70;78.80;;;;;;5063914;28;19928;-79
2023/09/21 12:55:14;;;;;;;;;;;21.70;78.70;;;;;;5049685;28;19929;-80
2023/09/21 12:57:41;;;;;;;;;;;21.70;78.80;;;;;;5066899;28;19928;-79
2023/09/21 13:00:14;;;;;;;;;;;21.70;78.70;;;;;;5064117;28;19928;-80
2023/09/21 13:02:43;;;;;;;;;;;21.80;78.80;;;;;;5068582;28;19966;-80
2023/09/21 13:05:12;;;;;;;;;;;21.80;78.80;;;;;;5068019;28;19935;-80
2023/09/21 13:07:39;;;;;;;;;;;21.80;78.70;;;;;;5066698;28;19928;-80
2023/09/21 13:10:18;;;;;;;;;;;21.80;78.60;;;;;;5044146;28;20791;-80
2023/09/21 13:13:02;;;;;;;;;;;21.90;78.70;;;;;;5062390;28;19936;-79
2023/09/21 13:15:30;;;;;;;;;;;21.90;78.60;;;;;;5063674;28;19930;-80
2023/09/21 13:17:58;;;;;;;;;;;22.00;78.40;;;;;;5078123;28;20050;-80
2023/09/21 13:20:27;;;;;;;;;;;22.00;78.20;;;;;;5069312;28;19934;-79
2023/09/21 13:22:54;;;;;;;;;;;22.10;78.00;;;;;;5066512;28;19938;-79
2023/09/21 13:25:22;;;;;;;;;;;22.20;77.90;;;;;;5068812;28;19928;-81
2023/09/21 13:27:53;;;;;;;;;;;22.20;77.70;;;;;;5081522;28;20416;-79
2023/09/21 13:30:20;;;;;;;;;;;22.30;77.60;;;;;;5053471;28;19941;-80
2023/09/21 13:32:47;;;;;;;;;;;22.30;77.40;;;;;;5066528;28;19972;-79
2023/09/21 13:35:17;;;;;;;;;;;22.40;77.20;;;;;;5067432;28;19983;-78
2023/09/21 13:37:47;;;;;;;;;;;22.40;77.70;;;;;;5052415;28;19938;-79
2023/09/21 13:40:14;;;;;;;;;;;22.50;76.80;;;;;;5063979;28;19939;-78
2023/09/21 13:42:41;;;;;;;;;;;22.50;76.70;;;;;;5058701;28;20406;-79
2023/09/21 13:45:08;;;;;;;;;;;22.60;76.70;;;;;;5055717;28;19928;-80
2023/09/21 13:47:35;;;;;;;;;;;22.60;76.40;;;;;;5064179;28;19928;-79
2023/09/21 13:50:02;;;;;;;;;;;22.60;75.80;;;;;;5067255;28;19936;-78
2023/09/21 13:52:33;;;;;;;;;;;22.70;76.00;;;;;;5045438;28;19929;-79
2023/09/21 13:55:06;;;;;;;;;;;22.70;75.80;;;;;;5064933;28;19928;-78
2023/09/21 13:57:33;;;;;;;;;;;22.80;75.60;;;;;;5070445;28;19943;-81
2023/09/21 14:00:00;;;;;;;;;;;22.80;75.30;;;;;;5055098;28;19928;-78
2023/09/21 14:02:28;;;;;;;;;;;22.90;75.20;;;;;;5053363;28;19982;-78
2023/09/21 14:04:55;;;;;;;;;;;22.90;75.40;;;;;;5068766;28;20244;-80
2023/09/21 14:07:22;;;;;;;;;;;23.00;74.90;;;;;;5074177;28;19939;-80
2023/09/21 14:09:58;;;;;;;;;;;23.00;74.50;;;;;;5074558;28;20414;-77
2023/09/21 14:12:25;;;;;;;;;;;23.10;74.40;;;;;;5063629;28;19936;-80
2023/09/21 14:14:54;;;;;;;;;;;23.10;74.30;;;;;;5065920;28;19937;-80
2023/09/21 14:17:21;;;;;;;;;;;23.10;74.30;;;;;;5053160;28;19939;-80
2023/09/21 14:19:48;;;;;;;;;;;23.10;74.20;;;;;;5074483;28;19935;-78
2023/09/21 14:22:18;;;;;;;;;;;23.20;74.20;;;;;;5072031;28;20106;-78
2023/09/21 14:24:45;;;;;;;;;;;23.20;74.20;;;;;;5059744;28;19925;-78
2023/09/21 14:27:14;;;;;;;;;;;23.10;74.10;;;;;;5073236;28;20413;-78
2023/09/21 14:29:40;;;;;;;;;;;23.20;74.30;;;;;;5070174;28;20031;-80
2023/09/21 14:32:10;;;;;;;;;;;23.10;74.30;;;;;;5063305;28;20393;-79